Faubush, Kentucky
Current Conditions -  °F | °C
As of 8:55 AM on Wednesday 26 Nov 2014 (Local Time) from KSME Reporting Station
Clear Clear  
Wind Chill: 30°   Ceiling: Unl
Heat Index: 34°   Visibility: 10mi
Dew Point: 30°   Wind: 5mph
Humidity: 87%   Direction: 330°NNW
Pressure: 30.11"   Gusts: NA
Location:  37.0701°N, 84.793°W
Report Text: KSME 261355Z AUTO 33004KT 10SM CLR 01/M01 A3011 RMK AO2
Loading
Personal Weather Stations






























Interactive Weather Map New forecast layout! Learn more

10-Day Weather Forecast

Advertisements
Track Severe Weather on mobile